createdAt,value
2022-12-24T00:00:08.332Z,10.93
2022-12-24T00:02:35.068Z,11.75
2022-12-24T00:05:01.860Z,10.35
2022-12-24T00:07:29.950Z,8.98
2022-12-24T00:09:56.519Z,7.60
2022-12-24T00:12:23.105Z,9.00
2022-12-24T00:14:49.638Z,15.02
2022-12-24T00:17:16.201Z,8.98
2022-12-24T00:19:43.397Z,10.68
2022-12-24T00:22:10.236Z,11.20
2022-12-24T00:24:36.806Z,11.23
2022-12-24T00:27:03.690Z,10.80
2022-12-24T00:29:30.255Z,12.00
2022-12-24T00:31:56.804Z,12.43
2022-12-24T00:34:24.579Z,9.23
2022-12-24T00:36:51.328Z,11.25
2022-12-24T00:39:18.282Z,10.23
2022-12-24T00:41:44.892Z,9.68
2022-12-24T00:44:11.910Z,9.02
2022-12-24T00:46:41.296Z,7.68
2022-12-24T00:49:08.992Z,10.70
2022-12-24T00:51:37.026Z,9.70
2022-12-24T00:54:04.089Z,11.05
2022-12-24T00:56:30.687Z,8.68
2022-12-24T00:58:57.250Z,10.82
2022-12-24T01:01:27.273Z,9.70
2022-12-24T01:04:14.325Z,11.55
2022-12-24T01:06:41.152Z,10.60
2022-12-24T01:09:07.935Z,9.88
2022-12-24T01:11:34.562Z,8.85
2022-12-24T01:14:01.275Z,8.48
2022-12-24T01:16:28.062Z,13.45
2022-12-24T01:18:54.695Z,11.05
2022-12-24T01:21:21.257Z,11.30
2022-12-24T01:23:47.868Z,9.15
2022-12-24T01:26:14.758Z,9.85
2022-12-24T01:28:42.075Z,13.52
2022-12-24T01:31:16.240Z,12.55
2022-12-24T01:33:43.217Z,12.18
2022-12-24T01:36:11.006Z,10.52
2022-12-24T01:38:37.674Z,9.95
2022-12-24T01:41:23.079Z,12.18
2022-12-24T01:43:49.813Z,9.65
2022-12-24T01:46:25.365Z,9.75
2022-12-24T01:49:04.372Z,9.80
2022-12-24T01:51:37.566Z,11.25
2022-12-24T01:54:09.898Z,11.90
2022-12-24T01:56:43.371Z,13.50
2022-12-24T01:59:14.856Z,12.93
2022-12-24T02:01:41.683Z,10.73
2022-12-24T02:04:30.597Z,10.88
2022-12-24T02:06:59.447Z,7.00
2022-12-24T02:09:26.926Z,9.40
2022-12-24T02:11:53.631Z,11.98
2022-12-24T02:14:20.957Z,10.50
2022-12-24T02:17:12.416Z,11.90
2022-12-24T02:20:31.765Z,9.98
2022-12-24T02:23:18.299Z,10.95
2022-12-24T02:25:58.226Z,10.70
2022-12-24T02:29:01.531Z,11.98
2022-12-24T02:31:38.996Z,11.00
2022-12-24T02:34:31.625Z,12.15
2022-12-24T02:37:04.837Z,12.10
2022-12-24T02:39:43.450Z,10.50
2022-12-24T02:42:12.986Z,14.45
2022-12-24T02:44:57.788Z,14.07
2022-12-24T02:47:27.447Z,10.05
2022-12-24T02:49:54.335Z,14.82
2022-12-24T02:52:31.397Z,13.27
2022-12-24T02:55:01.630Z,11.30
2022-12-24T02:57:33.935Z,13.23
2022-12-24T03:00:07.522Z,12.85
2022-12-24T03:03:03.373Z,13.25
2022-12-24T03:05:42.246Z,9.65
2022-12-24T03:08:43.571Z,15.55
2022-12-24T03:11:13.861Z,13.10
2022-12-24T03:13:41.709Z,12.27
2022-12-24T03:16:12.171Z,12.60
2022-12-24T03:18:42.348Z,12.45
2022-12-24T03:21:26.389Z,13.90
2022-12-24T03:23:52.954Z,15.02
2022-12-24T03:26:20.463Z,17.80
2022-12-24T03:28:47.985Z,17.35
2022-12-24T03:31:14.661Z,11.32
2022-12-24T03:33:41.541Z,12.18
2022-12-24T03:36:09.406Z,13.95
2022-12-24T03:38:36.219Z,10.68
2022-12-24T03:41:03.669Z,15.02
2022-12-24T03:43:30.324Z,12.43
2022-12-24T03:45:56.906Z,15.35
2022-12-24T03:48:27.510Z,13.18
2022-12-24T03:50:59.039Z,12.70
2022-12-24T03:53:25.635Z,12.30
2022-12-24T03:55:54.244Z,6.88
2022-12-24T03:58:21.082Z,14.38
2022-12-24T04:00:47.590Z,13.30
2022-12-24T04:03:14.263Z,10.70
2022-12-24T04:05:40.971Z,11.38
2022-12-24T04:08:07.447Z,9.65
2022-12-24T04:10:34.004Z,15.10
2022-12-24T04:13:00.511Z,7.00
2022-12-24T04:15:27.339Z,9.10
2022-12-24T04:17:53.863Z,8.55
2022-12-24T04:20:20.420Z,11.20
2022-12-24T04:22:47.034Z,11.90
2022-12-24T04:25:13.592Z,10.20
2022-12-24T04:27:40.293Z,10.95
2022-12-24T04:30:07.432Z,8.40
2022-12-24T04:32:33.947Z,13.00
2022-12-24T04:35:00.572Z,11.20
2022-12-24T04:37:27.102Z,12.38
2022-12-24T04:39:53.620Z,10.40
2022-12-24T04:42:20.214Z,12.88
2022-12-24T04:44:46.796Z,11.27
2022-12-24T04:47:13.320Z,9.27
2022-12-24T04:49:39.841Z,19.27
2022-12-24T04:52:06.421Z,15.50
2022-12-24T04:54:32.979Z,10.00
2022-12-24T04:56:59.768Z,13.50
2022-12-24T04:59:26.348Z,12.20
2022-12-24T05:01:53.161Z,10.85
2022-12-24T05:04:19.761Z,10.18
2022-12-24T05:06:46.328Z,12.38
2022-12-24T05:09:13.299Z,12.88
2022-12-24T05:11:40.028Z,9.13
2022-12-24T05:14:06.611Z,11.55
2022-12-24T05:16:33.371Z,12.70
2022-12-24T05:18:59.999Z,16.52
2022-12-24T05:21:26.718Z,13.80
2022-12-24T05:24:12.464Z,11.18
2022-12-24T05:26:39.021Z,11.60
2022-12-24T05:29:07.550Z,11.07
2022-12-24T05:31:34.650Z,9.70
2022-12-24T05:34:03.186Z,10.07
2022-12-24T05:36:31.071Z,10.57
2022-12-24T05:38:58.436Z,14.60
2022-12-24T05:41:25.692Z,14.00
2022-12-24T05:43:52.408Z,15.02
2022-12-24T05:46:21.118Z,8.98
2022-12-24T05:48:48.839Z,15.38
2022-12-24T05:51:19.533Z,12.52
2022-12-24T05:53:47.071Z,15.77
2022-12-24T05:56:16.997Z,10.02
2022-12-24T05:58:44.129Z,11.75
2022-12-24T06:01:11.810Z,12.55
2022-12-24T06:03:38.858Z,12.88
2022-12-24T06:06:08.332Z,16.40
2022-12-24T06:08:35.830Z,16.17
2022-12-24T06:11:05.888Z,10.40
2022-12-24T06:13:33.825Z,10.48
2022-12-24T06:16:02.271Z,6.60
2022-12-24T06:18:33.108Z,14.00
2022-12-24T06:20:59.866Z,15.02
2022-12-24T06:23:29.528Z,12.13
2022-12-24T06:25:58.203Z,11.40
2022-12-24T06:28:25.339Z,11.55
2022-12-24T06:30:54.640Z,11.55
2022-12-24T06:33:24.058Z,10.18
2022-12-24T06:35:50.619Z,18.95
2022-12-24T06:38:17.138Z,8.00
2022-12-24T06:40:45.749Z,10.32
2022-12-24T06:43:13.914Z,14.32
2022-12-24T06:45:44.281Z,8.40
2022-12-24T06:48:10.984Z,8.88
2022-12-24T06:50:37.822Z,13.05
2022-12-24T06:53:04.322Z,18.08
2022-12-24T06:55:30.953Z,10.70
2022-12-24T06:57:57.550Z,13.18
2022-12-24T07:00:24.334Z,11.30
2022-12-24T07:02:51.060Z,18.90
2022-12-24T07:05:18.064Z,18.88
2022-12-24T07:07:45.621Z,17.73
2022-12-24T07:10:15.336Z,16.20
2022-12-24T07:12:42.664Z,17.00
2022-12-24T07:15:10.821Z,15.75
2022-12-24T07:17:37.527Z,15.43
2022-12-24T07:20:05.252Z,15.45
2022-12-24T07:22:32.079Z,21.08
2022-12-24T07:24:58.668Z,13.90
2022-12-24T07:27:25.305Z,15.57
2022-12-24T07:29:51.815Z,14.70
2022-12-24T07:32:20.403Z,13.18
2022-12-24T07:34:47.242Z,11.40
2022-12-24T07:37:14.395Z,18.38
2022-12-24T07:39:41.009Z,18.52
2022-12-24T07:42:08.520Z,26.45
2022-12-24T07:44:35.386Z,23.00
2022-12-24T07:47:02.145Z,19.98
2022-12-24T07:49:28.994Z,22.95
2022-12-24T07:51:55.535Z,17.45
2022-12-24T07:54:22.303Z,18.10
2022-12-24T07:56:48.931Z,20.33
2022-12-24T07:59:15.742Z,18.73
2022-12-24T08:01:43.073Z,16.38
2022-12-24T08:04:09.915Z,20.63
2022-12-24T08:06:36.664Z,24.52
2022-12-24T08:09:03.537Z,22.40
2022-12-24T08:11:30.170Z,24.02
2022-12-24T08:13:56.819Z,18.30
2022-12-24T08:16:23.465Z,22.98
2022-12-24T08:18:50.055Z,19.88
2022-12-24T08:21:16.752Z,21.35
2022-12-24T08:23:46.350Z,20.33
2022-12-24T08:26:13.376Z,18.17
2022-12-24T08:28:39.983Z,19.98
2022-12-24T08:31:06.627Z,16.90
2022-12-24T08:33:33.252Z,20.83
2022-12-24T08:36:01.439Z,20.30
2022-12-24T08:38:29.891Z,23.58
2022-12-24T08:40:56.511Z,17.15
2022-12-24T08:43:23.138Z,17.63
2022-12-24T08:45:50.100Z,18.60
2022-12-24T08:48:17.560Z,24.33
2022-12-24T08:50:44.727Z,17.08
2022-12-24T08:53:11.933Z,25.20
2022-12-24T08:55:39.629Z,26.02
2022-12-24T08:58:06.246Z,24.13
2022-12-24T09:00:32.749Z,24.25
2022-12-24T09:03:00.800Z,19.95
2022-12-24T09:05:27.548Z,23.58
2022-12-24T09:07:54.221Z,17.40
2022-12-24T09:10:21.254Z,21.23
2022-12-24T09:12:47.883Z,28.42
2022-12-24T09:15:14.747Z,25.88
2022-12-24T09:17:41.462Z,26.10
2022-12-24T09:20:09.325Z,26.08
2022-12-24T09:22:38.040Z,25.45
2022-12-24T09:25:06.257Z,25.98
2022-12-24T09:27:32.799Z,16.63
2022-12-24T09:29:59.427Z,19.75
2022-12-24T09:32:25.942Z,19.75
2022-12-24T09:34:52.528Z,19.30
2022-12-24T09:37:19.478Z,21.77
2022-12-24T09:39:46.003Z,23.38
2022-12-24T09:42:45.538Z,26.30
2022-12-24T09:45:29.503Z,22.55
2022-12-24T09:48:04.201Z,24.50
2022-12-24T09:50:46.295Z,20.55
2022-12-24T09:53:20.843Z,23.90
2022-12-24T09:55:52.998Z,25.95
2022-12-24T09:58:27.480Z,27.75
2022-12-24T10:00:56.167Z,26.50
2022-12-24T10:03:23.189Z,26.85
2022-12-24T10:06:00.773Z,27.83
2022-12-24T10:08:36.806Z,22.90
2022-12-24T10:11:45.166Z,16.77
2022-12-24T10:14:34.602Z,25.92
2022-12-24T10:17:18.523Z,20.63
2022-12-24T10:20:13.831Z,27.83
2022-12-24T10:23:04.844Z,24.60
2022-12-24T10:25:43.064Z,32.45
2022-12-24T10:28:16.996Z,27.65
2022-12-24T10:30:48.324Z,27.30
2022-12-24T10:33:20.241Z,29.38
2022-12-24T10:35:51.942Z,26.85
2022-12-24T10:38:18.486Z,27.50
2022-12-24T10:40:48.704Z,19.92
2022-12-24T10:43:21.059Z,28.27
2022-12-24T10:45:50.943Z,28.77
2022-12-24T10:48:30.367Z,38.10
2022-12-24T10:51:02.793Z,28.08
2022-12-24T10:53:44.280Z,27.08
2022-12-24T10:56:14.101Z,23.13
2022-12-24T10:58:45.545Z,23.92
2022-12-24T11:01:13.355Z,29.65
2022-12-24T11:03:40.105Z,23.50
2022-12-24T11:06:09.492Z,19.92
2022-12-24T11:08:39.506Z,27.02
2022-12-24T11:11:13.321Z,30.20
2022-12-24T11:13:41.460Z,30.63
2022-12-24T11:16:29.953Z,24.30
2022-12-24T11:18:58.912Z,23.15
2022-12-24T11:21:25.408Z,22.33
2022-12-24T11:23:56.056Z,30.13
2022-12-24T11:29:19.424Z,20.40
2022-12-24T11:31:47.200Z,19.40
2022-12-24T11:34:24.598Z,22.83
2022-12-24T11:36:53.277Z,23.40
2022-12-24T11:39:23.368Z,26.80
2022-12-24T11:41:53.820Z,23.88
2022-12-24T11:44:26.688Z,20.73
2022-12-24T11:46:57.178Z,24.00
2022-12-24T11:52:22.254Z,20.60
2022-12-24T11:54:57.557Z,19.55
2022-12-24T11:57:40.590Z,22.60
2022-12-24T12:00:11.115Z,18.73
2022-12-24T12:02:41.428Z,18.67
2022-12-24T12:05:38.598Z,17.35
2022-12-24T12:08:18.253Z,24.70
2022-12-24T12:10:46.844Z,17.23
2022-12-24T12:13:17.704Z,19.25
2022-12-24T12:15:50.900Z,18.48
2022-12-24T12:18:28.774Z,21.02
2022-12-24T12:21:06.480Z,21.55
2022-12-24T12:23:44.641Z,19.08
2022-12-24T12:26:18.910Z,19.60
2022-12-24T12:28:57.940Z,19.42
2022-12-24T12:31:36.926Z,19.55
2022-12-24T12:34:13.235Z,16.40
2022-12-24T12:36:41.920Z,22.77
2022-12-24T12:39:10.801Z,21.80
2022-12-24T12:42:05.549Z,17.13
2022-12-24T12:44:45.854Z,21.05
2022-12-24T12:47:30.578Z,17.25
2022-12-24T12:50:28.187Z,17.30
2022-12-24T12:53:24.260Z,14.15
2022-12-24T12:56:24.966Z,18.77
2022-12-24T13:02:01.670Z,15.13
2022-12-24T13:04:50.928Z,16.65
2022-12-24T13:07:51.154Z,18.88
2022-12-24T13:10:48.670Z,19.98
2022-12-24T13:13:33.461Z,13.82
2022-12-24T13:16:09.843Z,20.90
2022-12-24T13:18:58.225Z,20.92
2022-12-24T13:21:28.358Z,19.75
2022-12-24T13:24:13.960Z,13.35
2022-12-24T13:26:40.928Z,26.30
2022-12-24T13:29:35.319Z,21.30
2022-12-24T13:32:33.806Z,22.77
2022-12-24T13:35:00.288Z,28.67
2022-12-24T13:37:29.445Z,23.60
2022-12-24T13:40:08.605Z,22.33
2022-12-24T13:42:53.900Z,25.35
2022-12-24T13:45:52.668Z,28.33
2022-12-24T13:48:30.285Z,16.65
2022-12-24T13:51:00.839Z,23.25
2022-12-24T13:53:32.745Z,22.52
2022-12-24T13:56:20.967Z,19.08
2022-12-24T13:58:51.268Z,15.02
2022-12-24T14:01:33.330Z,17.65
2022-12-24T14:04:05.278Z,18.10
2022-12-24T14:06:35.703Z,17.80
2022-12-24T14:09:25.010Z,14.85
2022-12-24T14:12:03.626Z,20.23
2022-12-24T14:14:34.663Z,18.98
2022-12-24T14:17:20.505Z,18.85
2022-12-24T14:19:53.967Z,20.23
2022-12-24T14:22:28.686Z,21.80
2022-12-24T14:25:02.362Z,18.90
2022-12-24T14:27:38.940Z,19.55
2022-12-24T14:30:21.954Z,14.68
2022-12-24T14:32:50.627Z,16.75
2022-12-24T14:35:21.651Z,27.05
2022-12-24T14:38:01.133Z,16.05
2022-12-24T14:40:34.043Z,15.38
2022-12-24T14:43:26.529Z,19.70
2022-12-24T14:46:21.178Z,19.95
2022-12-24T14:49:00.861Z,19.00
2022-12-24T14:52:18.414Z,19.40
2022-12-24T14:54:54.966Z,19.70
2022-12-24T14:57:24.654Z,19.13
2022-12-24T15:00:02.390Z,24.50
2022-12-24T15:02:41.238Z,22.27
2022-12-24T15:05:09.870Z,17.35
2022-12-24T15:07:45.525Z,23.00
2022-12-24T15:10:29.004Z,20.45
2022-12-24T15:13:01.293Z,25.98
2022-12-24T15:15:28.017Z,15.52
2022-12-24T15:17:55.998Z,20.05
2022-12-24T15:20:25.634Z,20.55
2022-12-24T15:22:54.859Z,23.03
2022-12-24T15:25:31.665Z,25.23
2022-12-24T15:27:58.501Z,23.50
2022-12-24T15:30:29.278Z,22.20
2022-12-24T15:32:57.895Z,23.02
2022-12-24T15:35:35.385Z,28.00
2022-12-24T15:38:04.116Z,22.85
2022-12-24T15:40:33.185Z,23.35
2022-12-24T15:43:00.050Z,24.77
2022-12-24T15:45:32.254Z,30.23
2022-12-24T15:48:06.716Z,22.08
2022-12-24T15:50:36.579Z,19.83
2022-12-24T15:53:20.944Z,19.40
2022-12-24T15:56:27.216Z,17.88
2022-12-24T15:59:13.737Z,21.27
2022-12-24T16:01:40.565Z,19.65
2022-12-24T16:04:24.815Z,17.35
2022-12-24T16:07:01.797Z,21.85
2022-12-24T16:09:31.083Z,17.77
2022-12-24T16:12:02.942Z,22.80
2022-12-24T16:14:33.234Z,16.45
2022-12-24T16:16:59.852Z,20.53
2022-12-24T16:19:35.874Z,18.63
2022-12-24T16:22:24.566Z,13.32
2022-12-24T16:24:52.616Z,21.23
2022-12-24T16:27:19.200Z,20.35
2022-12-24T16:29:47.003Z,16.77
2022-12-24T16:32:36.544Z,22.42
2022-12-24T16:35:05.441Z,17.45
2022-12-24T16:37:32.018Z,19.52
2022-12-24T16:39:59.122Z,16.48
2022-12-24T16:42:46.009Z,19.83
2022-12-24T16:45:12.615Z,20.88
2022-12-24T16:47:43.225Z,23.42
2022-12-24T16:50:15.949Z,19.60
2022-12-24T16:52:42.452Z,25.23
2022-12-24T16:55:12.547Z,22.92
2022-12-24T16:57:40.561Z,23.30
2022-12-24T17:00:18.161Z,25.83
2022-12-24T17:02:45.090Z,25.48
2022-12-24T17:05:14.023Z,41.47
2022-12-24T17:07:43.775Z,21.60
2022-12-24T17:10:12.858Z,25.30
2022-12-24T17:12:39.644Z,25.45
2022-12-24T17:15:06.764Z,19.52
2022-12-24T17:17:33.712Z,17.65
2022-12-24T17:20:00.389Z,25.25
2022-12-24T17:22:29.693Z,17.95
2022-12-24T17:24:56.692Z,20.70
2022-12-24T17:27:23.640Z,22.23
2022-12-24T17:29:50.513Z,19.25
2022-12-24T17:32:17.138Z,19.05
2022-12-24T17:34:43.735Z,29.45
2022-12-24T17:37:10.550Z,25.73
2022-12-24T17:39:37.202Z,20.40
2022-12-24T17:42:04.243Z,18.95
2022-12-24T17:44:30.808Z,19.65
2022-12-24T17:46:57.405Z,30.20
2022-12-24T17:49:24.045Z,28.90
2022-12-24T17:51:50.628Z,18.73
2022-12-24T17:54:17.281Z,21.10
2022-12-24T17:56:43.960Z,20.83
2022-12-24T17:59:10.979Z,23.45
2022-12-24T18:01:37.644Z,16.80
2022-12-24T18:04:05.663Z,19.67
2022-12-24T18:06:32.659Z,16.20
2022-12-24T18:08:59.221Z,16.77
2022-12-24T18:11:29.351Z,17.38
2022-12-24T18:13:57.360Z,17.50
2022-12-24T18:16:28.062Z,13.23
2022-12-24T18:21:24.340Z,21.52
2022-12-24T18:23:52.122Z,13.05
2022-12-24T18:26:20.170Z,18.77
2022-12-24T18:28:47.521Z,20.27
2022-12-24T18:31:16.681Z,16.25
2022-12-24T18:33:45.819Z,12.63
2022-12-24T18:36:13.575Z,13.93
2022-12-24T18:38:41.016Z,17.23
2022-12-24T18:41:13.808Z,20.33
2022-12-24T18:43:41.495Z,17.38
2022-12-24T18:46:16.455Z,17.88
2022-12-24T18:48:43.278Z,16.83
2022-12-24T18:51:11.069Z,15.13
2022-12-24T18:53:38.490Z,14.70
2022-12-24T18:56:19.256Z,14.43
2022-12-24T19:01:24.868Z,16.08
2022-12-24T19:03:52.420Z,19.77
2022-12-24T19:06:20.005Z,14.50
2022-12-24T19:09:02.860Z,16.13
2022-12-24T19:11:32.548Z,16.20
2022-12-24T19:14:00.420Z,16.20
2022-12-24T19:16:28.719Z,14.02
2022-12-24T19:18:55.970Z,14.18
2022-12-24T19:21:22.633Z,21.48
2022-12-24T19:23:49.526Z,16.63
2022-12-24T19:26:17.746Z,16.60
2022-12-24T19:28:45.337Z,24.05
2022-12-24T19:31:15.021Z,20.38
2022-12-24T19:33:44.247Z,21.07
2022-12-24T19:36:18.851Z,17.77
2022-12-24T19:38:46.178Z,18.05
2022-12-24T19:41:15.211Z,26.02
2022-12-24T19:43:44.645Z,23.30
2022-12-24T19:46:14.609Z,28.35
2022-12-24T19:48:42.728Z,25.13
2022-12-24T19:51:11.976Z,22.50
2022-12-24T19:53:39.277Z,24.45
2022-12-24T19:56:06.916Z,28.30
2022-12-24T19:58:33.713Z,20.85
2022-12-24T20:01:15.615Z,18.15
2022-12-24T20:03:43.400Z,21.67
2022-12-24T20:06:10.379Z,23.77
2022-12-24T20:08:38.431Z,18.33
2022-12-24T20:11:11.251Z,20.75
2022-12-24T20:13:39.136Z,21.08
2022-12-24T20:16:11.267Z,17.63
2022-12-24T20:18:38.207Z,19.90
2022-12-24T20:21:07.920Z,21.58
2022-12-24T20:23:37.392Z,14.83
2022-12-24T20:26:05.285Z,20.45
2022-12-24T20:28:33.524Z,22.95
2022-12-24T20:31:00.233Z,24.50
2022-12-24T20:33:27.149Z,20.10
2022-12-24T20:35:53.624Z,22.10
2022-12-24T20:38:20.161Z,18.92
2022-12-24T20:40:46.903Z,17.33
2022-12-24T20:43:13.450Z,16.05
2022-12-24T20:45:40.924Z,14.15
2022-12-24T20:48:07.741Z,25.20
2022-12-24T20:50:34.293Z,18.17
2022-12-24T20:53:00.798Z,18.75
2022-12-24T20:55:27.512Z,18.75
2022-12-24T20:57:54.009Z,19.80
2022-12-24T21:00:21.149Z,21.95
2022-12-24T21:02:47.845Z,18.80
2022-12-24T21:05:14.884Z,21.65
2022-12-24T21:07:43.456Z,22.55
2022-12-24T21:10:12.426Z,25.33
2022-12-24T21:12:48.680Z,17.95
2022-12-24T21:15:17.320Z,23.85
2022-12-24T21:17:43.864Z,24.38
2022-12-24T21:20:11.189Z,18.25
2022-12-24T21:22:38.338Z,24.35
2022-12-24T21:25:05.809Z,24.15
2022-12-24T21:27:32.650Z,23.80
2022-12-24T21:29:59.477Z,23.15
2022-12-24T21:32:26.449Z,27.70
2022-12-24T21:34:52.997Z,23.67
2022-12-24T21:37:20.555Z,21.15
2022-12-24T21:39:48.051Z,23.45
2022-12-24T21:42:14.786Z,22.83
2022-12-24T21:44:41.358Z,26.75
2022-12-24T21:47:07.982Z,28.10
2022-12-24T21:49:52.746Z,26.70
2022-12-24T21:52:19.273Z,21.52
2022-12-24T21:54:45.759Z,23.20
2022-12-24T21:57:30.770Z,23.23
2022-12-24T22:00:21.297Z,30.92
2022-12-24T22:02:54.182Z,26.27
2022-12-24T22:05:21.386Z,25.35
2022-12-24T22:08:06.507Z,23.98
2022-12-24T22:10:52.115Z,23.83
2022-12-24T22:13:19.008Z,21.35
2022-12-24T22:15:51.350Z,23.65
2022-12-24T22:18:20.744Z,28.08
2022-12-24T22:20:48.125Z,24.85
2022-12-24T22:23:15.459Z,21.38
2022-12-24T22:25:43.802Z,24.30
2022-12-24T22:28:10.871Z,27.85
2022-12-24T22:30:42.368Z,30.35
2022-12-24T22:33:10.291Z,22.45
2022-12-24T22:35:39.544Z,32.53
2022-12-24T22:38:07.843Z,23.15
2022-12-24T22:40:34.403Z,27.92
2022-12-24T22:43:01.006Z,27.30
2022-12-24T22:45:28.850Z,21.50
2022-12-24T22:47:55.649Z,26.35
2022-12-24T22:50:22.468Z,28.45
2022-12-24T22:52:51.970Z,33.92
2022-12-24T22:55:18.601Z,27.67
2022-12-24T22:57:45.115Z,28.25
2022-12-24T23:00:17.013Z,28.63
2022-12-24T23:02:43.727Z,35.10
2022-12-24T23:05:14.860Z,21.88
2022-12-24T23:07:41.654Z,25.95
2022-12-24T23:10:08.712Z,26.30
2022-12-24T23:12:53.863Z,32.40
2022-12-24T23:15:20.450Z,26.88
2022-12-24T23:17:48.929Z,30.08
2022-12-24T23:20:17.852Z,27.20
2022-12-24T23:22:44.415Z,26.05
2022-12-24T23:25:10.899Z,27.85
2022-12-24T23:27:37.471Z,32.28
2022-12-24T23:30:04.730Z,31.88
2022-12-24T23:32:31.243Z,31.20
2022-12-24T23:34:57.725Z,25.45
2022-12-24T23:37:27.012Z,20.55
2022-12-24T23:39:57.646Z,26.58
2022-12-24T23:42:24.268Z,27.65
2022-12-24T23:44:51.468Z,25.05
2022-12-24T23:47:18.820Z,25.90
2022-12-24T23:49:45.381Z,29.98
2022-12-24T23:52:11.965Z,27.58
2022-12-24T23:54:38.576Z,24.20
2022-12-24T23:57:05.167Z,22.45
2022-12-24T23:59:35.246Z,25.65
